Wetterstation Vordersexau
Wetterdaten: Woche 13.11.23 - 19.11.23 (KW46)
Datum Zeit Temp. A. Feuchte A. Luftdruck Regen Wind Richtung Taupunkt Windchill Windben
13.11.2023 00:00 11,1 C 96 % 1007,0 hPa 1,2 l/m 6,1 km/h (2 Bft) S-SW 10,5 C 11,1 C 9,7 km/h (2 Bft)
13.11.2023 01:00 11,5 C 94 % 1007,4 hPa 0,0 l/m 8,6 km/h (2 Bft) S-SW 10,6 C 10,1 C 13,3 km/h (3 Bft)
13.11.2023 02:00 12,3 C 91 % 1007,0 hPa 0,3 l/m 14,8 km/h (3 Bft) W 10,9 C 8,0 C 24,5 km/h (4 Bft)
13.11.2023 03:00 12,5 C 89 % 1007,4 hPa 0,0 l/m 12,2 km/h (2 Bft) SW 10,7 C 9,3 C 18,4 km/h (3 Bft)
13.11.2023 04:00 12,8 C 87 % 1006,7 hPa 0,0 l/m 17,3 km/h (3 Bft) W 10,7 C 7,7 C 24,5 km/h (4 Bft)
13.11.2023 05:00 13,0 C 84 % 1007,4 hPa 0,0 l/m 12,2 km/h (2 Bft) W-SW 10,4 C 9,9 C 14,8 km/h (3 Bft)
13.11.2023 06:00 11,9 C 90 % 1007,8 hPa 0,0 l/m 8,6 km/h (2 Bft) W-SW 10,3 C 10,5 C 17,3 km/h (3 Bft)
13.11.2023 07:00 11,4 C 96 % 1007,8 hPa 1,5 l/m 2,5 km/h (1 Bft) SW 10,8 C 11,4 C 3,6 km/h (1 Bft)
13.11.2023 08:00 12,1 C 94 % 1007,5 hPa 1,5 l/m 9,7 km/h (2 Bft) S-SW 11,2 C 10,1 C 14,8 km/h (3 Bft)
13.11.2023 09:00 13,5 C 89 % 1007,8 hPa 0,3 l/m 14,8 km/h (3 Bft) S-SW 11,7 C 9,4 C 22,0 km/h (4 Bft)
13.11.2023 10:00 14,4 C 84 % 1007,6 hPa 0,0 l/m 11,2 km/h (2 Bft) S-SW 11,7 C 11,9 C 18,4 km/h (3 Bft)
13.11.2023 11:00 14,9 C 81 % 1007,4 hPa 0,0 l/m 8,6 km/h (2 Bft) W 11,7 C 13,7 C 13,3 km/h (3 Bft)
13.11.2023 12:00 15,1 C 84 % 1007,3 hPa 0,0 l/m 12,2 km/h (2 Bft) W-SW 12,4 C 12,3 C 14,8 km/h (3 Bft)
13.11.2023 13:00 15,0 C 87 % 1006,2 hPa 0,0 l/m 9,7 km/h (2 Bft) SW 12,9 C 13,3 C 17,3 km/h (3 Bft)
13.11.2023 14:00 14,9 C 88 % 1006,0 hPa 1,2 l/m 15,8 km/h (3 Bft) W-SW 12,9 C 10,8 C 25,6 km/h (4 Bft)
13.11.2023 15:00 15,1 C 86 % 1005,5 hPa 0,0 l/m 6,1 km/h (2 Bft) W-SW 12,8 C 15,1 C 11,2 km/h (2 Bft)
13.11.2023 16:00 16,2 C 81 % 1005,2 hPa 0,0 l/m 12,2 km/h (2 Bft) SW 12,9 C 13,6 C 22,0 km/h (4 Bft)
13.11.2023 17:00 16,3 C 81 % 1004,9 hPa 0,0 l/m 15,8 km/h (3 Bft) S-SW 13,0 C 12,5 C 22,0 km/h (4 Bft)
13.11.2023 18:00 15,4 C 87 % 1004,7 hPa 0,3 l/m 14,8 km/h (3 Bft) SW 13,2 C 11,7 C 17,3 km/h (3 Bft)
13.11.2023 19:00 16,2 C 84 % 1004,9 hPa 0,3 l/m 13,3 km/h (3 Bft) S-SW 13,5 C 13,2 C 20,9 km/h (4 Bft)
13.11.2023 20:00 16,2 C 84 % 1005,0 hPa 0,0 l/m 19,4 km/h (3 Bft) W-SW 13,5 C 11,4 C 25,6 km/h (4 Bft)
13.11.2023 21:00 16,4 C 83 % 1005,0 hPa 0,0 l/m 11,2 km/h (2 Bft) W 13,5 C 14,2 C 20,9 km/h (4 Bft)
13.11.2023 22:00 17,0 C 81 % 1004,2 hPa 0,0 l/m 18,4 km/h (3 Bft) W-NW 13,7 C 12,7 C 24,5 km/h (4 Bft)
13.11.2023 23:00 14,9 C 95 % 1005,3 hPa 6,3 l/m 9,7 km/h (2 Bft) N 14,1 C 13,1 C 22,0 km/h (4 Bft)
14.11.2023 00:00 14,0 C 98 % 1005,7 hPa 6,6 l/m 0,0 km/h (0 Bft) N 13,7 C 14,0 C 0,0 km/h (0 Bft)
14.11.2023 01:00 13,8 C 99 % 1006,2 hPa 3,6 l/m 0,0 km/h (0 Bft) NW 13,6 C 13,8 C 2,5 km/h (1 Bft)
14.11.2023 02:00 12,2 C 99 % 1006,7 hPa 0,9 l/m 11,2 km/h (2 Bft) W-NW 12,0 C 9,4 C 20,9 km/h (4 Bft)
14.11.2023 03:00 12,2 C 93 % 1007,2 hPa 0,9 l/m 1,1 km/h (1 Bft) S-SW 11,1 C 12,2 C 7,2 km/h (2 Bft)
14.11.2023 04:00 11,7 C 97 % 1007,6 hPa 1,2 l/m 1,1 km/h (1 Bft) SO 11,2 C 11,7 C 2,5 km/h (1 Bft)
14.11.2023 05:00 11,4 C 98 % 1008,0 hPa 2,7 l/m 1,1 km/h (1 Bft) SW 11,1 C 11,4 C 2,5 km/h (1 Bft)
14.11.2023 06:00 11,3 C 96 % 1008,9 hPa 0,3 l/m 7,2 km/h (2 Bft) SW 10,7 C 10,8 C 11,2 km/h (2 Bft)
14.11.2023 07:00 10,3 C 88 % 1009,7 hPa 0,0 l/m 8,6 km/h (2 Bft) W-SW 8,4 C 8,8 C 11,2 km/h (2 Bft)
14.11.2023 08:00 10,8 C 87 % 1010,2 hPa 0,0 l/m 13,3 km/h (3 Bft) S-SW 8,7 C 6,8 C 18,4 km/h (3 Bft)
14.11.2023 09:00 11,4 C 85 % 1010,1 hPa 0,0 l/m 13,3 km/h (3 Bft) W-SW 9,0 C 7,5 C 18,4 km/h (3 Bft)
14.11.2023 10:00 11,8 C 83 % 1010,1 hPa 0,0 l/m 7,2 km/h (2 Bft) SW 9,0 C 11,3 C 11,2 km/h (2 Bft)
14.11.2023 11:00 11,9 C 78 % 1009,9 hPa 0,0 l/m 5,0 km/h (1 Bft) SW 8,2 C 11,9 C 9,7 km/h (2 Bft)
14.11.2023 12:00 12,4 C 70 % 1009,9 hPa 0,0 l/m 7,2 km/h (2 Bft) S-SW 7,1 C 11,9 C 11,2 km/h (2 Bft)
14.11.2023 13:00 12,5 C 68 % 1008,7 hPa 0,0 l/m 8,6 km/h (2 Bft) SW 6,8 C 11,1 C 13,3 km/h (3 Bft)
14.11.2023 14:00 10,3 C 86 % 1008,3 hPa 0,6 l/m 12,2 km/h (2 Bft) S-SW 8,1 C 6,8 C 22,0 km/h (4 Bft)
14.11.2023 15:00 9,3 C 94 % 1007,8 hPa 3,0 l/m 8,6 km/h (2 Bft) SW 8,4 C 7,7 C 14,8 km/h (3 Bft)
14.11.2023 16:00 9,5 C 93 % 1007,0 hPa 2,1 l/m 8,6 km/h (2 Bft) SO 8,4 C 7,9 C 14,8 km/h (3 Bft)
14.11.2023 17:00 10,1 C 90 % 1005,4 hPa 0,6 l/m 5,0 km/h (1 Bft) SO 8,5 C 10,1 C 7,2 km/h (2 Bft)
14.11.2023 18:00 10,5 C 90 % 1004,8 hPa 0,0 l/m 2,5 km/h (1 Bft) W-SW 8,9 C 10,5 C 6,1 km/h (2 Bft)
14.11.2023 19:00 11,9 C 90 % 1005,2 hPa 0,0 l/m 12,2 km/h (2 Bft) W-SW 10,3 C 8,6 C 17,3 km/h (3 Bft)
14.11.2023 20:00 12,0 C 93 % 1004,8 hPa 0,3 l/m 7,2 km/h (2 Bft) W-NW 10,9 C 11,5 C 11,2 km/h (2 Bft)
14.11.2023 21:00 11,1 C 93 % 1006,2 hPa 2,1 l/m 5,0 km/h (1 Bft) S-SO 10,0 C 11,1 C 9,7 km/h (2 Bft)
14.11.2023 22:00 10,1 C 95 % 1007,3 hPa 1,5 l/m 5,0 km/h (1 Bft) W-SW 9,3 C 10,1 C 6,1 km/h (2 Bft)
14.11.2023 23:00 11,0 C 88 % 1008,1 hPa 0,0 l/m 6,1 km/h (2 Bft) SW 9,1 C 11,0 C 7,2 km/h (2 Bft)
15.11.2023 00:00 11,9 C 84 % 1009,0 hPa 0,0 l/m 13,3 km/h (3 Bft) SW 9,3 C 8,1 C 20,9 km/h (4 Bft)
15.11.2023 01:00 11,6 C 85 % 1009,8 hPa 0,0 l/m 8,6 km/h (2 Bft) W-NW 9,2 C 10,2 C 11,2 km/h (2 Bft)
15.11.2023 02:00 11,2 C 86 % 1010,8 hPa 0,0 l/m 3,6 km/h (1 Bft) W 8,9 C 11,2 C 7,2 km/h (2 Bft)
15.11.2023 03:00 10,9 C 87 % 1011,7 hPa 0,0 l/m 5,0 km/h (1 Bft) W-NW 8,8 C 10,9 C 7,2 km/h (2 Bft)
15.11.2023 04:00 10,7 C 87 % 1012,2 hPa 0,0 l/m 5,0 km/h (1 Bft) W 8,6 C 10,7 C 6,1 km/h (2 Bft)
15.11.2023 05:00 10,8 C 84 % 1012,4 hPa 0,0 l/m 6,1 km/h (2 Bft) S-SW 8,2 C 10,8 C 9,7 km/h (2 Bft)
15.11.2023 06:00 10,8 C 84 % 1013,0 hPa 0,0 l/m 6,1 km/h (2 Bft) W-SW 8,2 C 10,8 C 9,7 km/h (2 Bft)
15.11.2023 07:00 10,6 C 84 % 1013,7 hPa 0,0 l/m 9,7 km/h (2 Bft) W-NW 8,0 C 8,4 C 17,3 km/h (3 Bft)
15.11.2023 08:00 9,7 C 92 % 1014,1 hPa 0,0 l/m 7,2 km/h (2 Bft) SW 8,5 C 9,1 C 11,2 km/h (2 Bft)
15.11.2023 09:00 9,8 C 90 % 1014,4 hPa 0,0 l/m 8,6 km/h (2 Bft) S 8,2 C 8,2 C 11,2 km/h (2 Bft)
15.11.2023 10:00 10,2 C 90 % 1015,3 hPa 0,0 l/m 5,0 km/h (1 Bft) SW 8,6 C 10,2 C 9,7 km/h (2 Bft)
15.11.2023 11:00 10,9 C 86 % 1016,1 hPa 0,0 l/m 5,0 km/h (1 Bft) SW 8,7 C 10,9 C 7,2 km/h (2 Bft)
15.11.2023 12:00 12,2 C 80 % 1016,3 hPa 0,0 l/m 8,6 km/h (2 Bft) SW 8,9 C 10,8 C 13,3 km/h (3 Bft)
15.11.2023 13:00 13,6 C 77 % 1016,2 hPa 0,0 l/m 9,7 km/h (2 Bft) W-SW 9,6 C 11,7 C 14,8 km/h (3 Bft)
15.11.2023 14:00 12,2 C 77 % 1015,8 hPa 0,0 l/m 13,3 km/h (3 Bft) W-SW 8,3 C 8,5 C 18,4 km/h (3 Bft)
15.11.2023 15:00 11,8 C 81 % 1016,0 hPa 0,0 l/m 6,1 km/h (2 Bft) SW 8,6 C 11,8 C 9,7 km/h (2 Bft)
15.11.2023 16:00 12,4 C 76 % 1016,6 hPa 0,0 l/m 11,2 km/h (2 Bft) W 8,3 C 9,6 C 14,8 km/h (3 Bft)
15.11.2023 17:00 11,1 C 80 % 1016,7 hPa 0,0 l/m 5,0 km/h (1 Bft) S-SW 7,8 C 11,1 C 6,1 km/h (2 Bft)
15.11.2023 18:00 9,6 C 83 % 1017,4 hPa 0,0 l/m 2,5 km/h (1 Bft) W-SW 6,9 C 9,6 C 3,6 km/h (1 Bft)
15.11.2023 19:00 9,5 C 84 % 1017,9 hPa 0,0 l/m 5,0 km/h (1 Bft) SW 6,9 C 9,5 C 9,7 km/h (2 Bft)
15.11.2023 20:00 10,2 C 85 % 1017,9 hPa 0,0 l/m 5,0 km/h (1 Bft) W-SW 7,8 C 10,2 C 9,7 km/h (2 Bft)
15.11.2023 21:00 10,4 C 84 % 1017,7 hPa 0,0 l/m 7,2 km/h (2 Bft) SW 7,8 C 9,8 C 11,2 km/h (2 Bft)
15.11.2023 22:00 10,1 C 83 % 1017,5 hPa 0,0 l/m 3,6 km/h (1 Bft) SW 7,3 C 10,1 C 6,1 km/h (2 Bft)
15.11.2023 23:00 10,2 C 81 % 1016,8 hPa 0,0 l/m 6,1 km/h (2 Bft) SW 7,1 C 10,2 C 9,7 km/h (2 Bft)
16.11.2023 00:00 9,7 C 83 % 1016,5 hPa 0,0 l/m 5,0 km/h (1 Bft) SW 7,0 C 9,7 C 7,2 km/h (2 Bft)
16.11.2023 01:00 9,5 C 83 % 1016,4 hPa 0,0 l/m 6,1 km/h (2 Bft) W 6,8 C 9,5 C 9,7 km/h (2 Bft)
16.11.2023 02:00 9,7 C 82 % 1016,3 hPa 0,0 l/m 7,2 km/h (2 Bft) SW 6,8 C 9,1 C 9,7 km/h (2 Bft)
16.11.2023 03:00 9,0 C 85 % 1015,6 hPa 0,0 l/m 6,1 km/h (2 Bft) NO 6,6 C 9,0 C 9,7 km/h (2 Bft)
16.11.2023 04:00 7,1 C 92 % 1015,3 hPa 0,0 l/m 2,5 km/h (1 Bft) O-NO 5,9 C 7,1 C 3,6 km/h (1 Bft)
16.11.2023 05:00 5,3 C 95 % 1014,5 hPa 0,0 l/m 1,1 km/h (1 Bft) N 4,6 C 5,3 C 2,5 km/h (1 Bft)
16.11.2023 06:00 5,8 C 97 % 1014,3 hPa 0,0 l/m 0,0 km/h (0 Bft) O-NO 5,4 C 5,8 C 2,5 km/h (1 Bft)
16.11.2023 07:00 5,7 C 97 % 1013,8 hPa 0,0 l/m 1,1 km/h (1 Bft) N 5,3 C 5,7 C 2,5 km/h (1 Bft)
16.11.2023 08:00 5,5 C 97 % 1013,0 hPa 0,0 l/m 0,0 km/h (0 Bft) N 5,1 C 5,5 C 0,0 km/h (0 Bft)
16.11.2023 09:00 5,3 C 98 % 1012,6 hPa 0,0 l/m 0,0 km/h (0 Bft) O 5,0 C 5,3 C 2,5 km/h (1 Bft)
16.11.2023 10:00 6,3 C 97 % 1011,3 hPa 0,0 l/m 1,1 km/h (1 Bft) O-SO 5,9 C 6,3 C 2,5 km/h (1 Bft)
16.11.2023 11:00 7,5 C 95 % 1010,6 hPa 0,0 l/m 1,1 km/h (1 Bft) N 6,8 C 7,5 C 2,5 km/h (1 Bft)
16.11.2023 12:00 8,9 C 92 % 1008,3 hPa 0,0 l/m 0,0 km/h (0 Bft) S-SO 7,7 C 8,9 C 0,0 km/h (0 Bft)
16.11.2023 13:00 11,6 C 72 % 1004,9 hPa 0,0 l/m 3,6 km/h (1 Bft) W 6,7 C 11,6 C 6,1 km/h (2 Bft)
16.11.2023 14:00 9,1 C 91 % 1005,5 hPa 0,0 l/m 5,0 km/h (1 Bft) N 7,7 C 9,1 C 7,2 km/h (2 Bft)
16.11.2023 15:00 9,3 C 94 % 1003,8 hPa 0,3 l/m 0,0 km/h (0 Bft) SO 8,4 C 9,3 C 2,5 km/h (1 Bft)
16.11.2023 16:00 8,8 C 93 % 1003,2 hPa 0,9 l/m 5,0 km/h (1 Bft) NO 7,7 C 8,8 C 7,2 km/h (2 Bft)
16.11.2023 17:00 8,4 C 96 % 1001,4 hPa 2,1 l/m 3,6 km/h (1 Bft) O-SO 7,8 C 8,4 C 6,1 km/h (2 Bft)
16.11.2023 18:00 8,6 C 98 % 1001,0 hPa 2,4 l/m 1,1 km/h (1 Bft) W-SW 8,3 C 8,6 C 2,5 km/h (1 Bft)
16.11.2023 19:00 11,0 C 95 % 1000,6 hPa 0,9 l/m 13,3 km/h (3 Bft) SW 10,2 C 7,1 C 20,9 km/h (4 Bft)
16.11.2023 20:00 11,5 C 94 % 1000,8 hPa 0,3 l/m 9,7 km/h (2 Bft) W-SW 10,6 C 9,4 C 14,8 km/h (3 Bft)
16.11.2023 21:00 11,6 C 94 % 1000,3 hPa 0,6 l/m 8,6 km/h (2 Bft) W 10,7 C 10,2 C 13,3 km/h (3 Bft)
16.11.2023 22:00 11,2 C 96 % 999,9 hPa 4,2 l/m 9,7 km/h (2 Bft) NW 10,6 C 9,1 C 14,8 km/h (3 Bft)
16.11.2023 23:00 9,1 C 98 % 1001,6 hPa 5,1 l/m 5,0 km/h (1 Bft) N 8,8 C 9,1 C 9,7 km/h (2 Bft)
17.11.2023 00:00 7,9 C 99 % 1003,9 hPa 1,5 l/m 0,0 km/h (0 Bft) W 7,8 C 7,9 C 2,5 km/h (1 Bft)
17.11.2023 01:00 7,0 C 99 % 1007,9 hPa 1,8 l/m 7,2 km/h (2 Bft) W 6,9 C 6,3 C 14,8 km/h (3 Bft)
17.11.2023 02:00 6,3 C 99 % 1010,3 hPa 0,6 l/m 5,0 km/h (1 Bft) N 6,2 C 6,3 C 9,7 km/h (2 Bft)
17.11.2023 03:00 6,4 C 99 % 1011,8 hPa 0,0 l/m 0,0 km/h (0 Bft) N 6,3 C 6,4 C 0,0 km/h (0 Bft)
17.11.2023 04:00 6,4 C 99 % 1012,9 hPa 0,9 l/m 0,0 km/h (0 Bft) NO 6,3 C 6,4 C 0,0 km/h (0 Bft)
17.11.2023 05:00 5,9 C 99 % 1013,8 hPa 1,5 l/m 3,6 km/h (1 Bft) O 5,8 C 5,9 C 9,7 km/h (2 Bft)
17.11.2023 06:00 5,6 C 99 % 1014,1 hPa 0,9 l/m 2,5 km/h (1 Bft) N 5,5 C 5,6 C 2,5 km/h (1 Bft)
17.11.2023 07:00 5,5 C 99 % 1014,5 hPa 0,6 l/m 0,0 km/h (0 Bft) N 5,4 C 5,5 C 2,5 km/h (1 Bft)
17.11.2023 08:00 5,6 C 99 % 1015,1 hPa 1,5 l/m 0,0 km/h (0 Bft) N 5,5 C 5,6 C 0,0 km/h (0 Bft)
17.11.2023 09:00 5,7 C 99 % 1015,7 hPa 0,6 l/m 0,0 km/h (0 Bft) N 5,6 C 5,7 C 0,0 km/h (0 Bft)
17.11.2023 10:00 6,0 C 99 % 1016,2 hPa 1,5 l/m 0,0 km/h (0 Bft) SO 5,9 C 6,0 C 0,0 km/h (0 Bft)
17.11.2023 11:00 5,9 C 99 % 1016,4 hPa 0,0 l/m 2,5 km/h (1 Bft) SO 5,8 C 5,9 C 3,6 km/h (1 Bft)
17.11.2023 12:00 5,7 C 99 % 1016,5 hPa 0,9 l/m 5,0 km/h (1 Bft) N 5,6 C 5,7 C 7,2 km/h (2 Bft)
17.11.2023 13:00 6,5 C 98 % 1016,3 hPa 0,0 l/m 0,0 km/h (0 Bft) N 6,2 C 6,5 C 0,0 km/h (0 Bft)
17.11.2023 14:00 7,4 C 98 % 1016,4 hPa 0,0 l/m 0,0 km/h (0 Bft) N 7,1 C 7,4 C 0,0 km/h (0 Bft)
17.11.2023 15:00 7,5 C 99 % 1016,8 hPa 0,3 l/m 0,0 km/h (0 Bft) N 7,4 C 7,5 C 0,0 km/h (0 Bft)
17.11.2023 16:00 7,4 C 99 % 1017,0 hPa 0,9 l/m 0,0 km/h (0 Bft) SO 7,3 C 7,4 C 0,0 km/h (0 Bft)
17.11.2023 17:00 7,2 C 99 % 1017,5 hPa 1,5 l/m 1,1 km/h (1 Bft) N 7,1 C 7,2 C 2,5 km/h (1 Bft)
17.11.2023 18:00 7,0 C 99 % 1017,9 hPa 0,3 l/m 0,0 km/h (0 Bft) N 6,9 C 7,0 C 0,0 km/h (0 Bft)
17.11.2023 19:00 7,0 C 99 % 1018,6 hPa 1,8 l/m 0,0 km/h (0 Bft) N 6,9 C 7,0 C 2,5 km/h (1 Bft)
17.11.2023 20:00 6,2 C 99 % 1019,4 hPa 0,0 l/m 0,0 km/h (0 Bft) N 6,1 C 6,2 C 0,0 km/h (0 Bft)
17.11.2023 21:00 5,9 C 99 % 1019,9 hPa 0,0 l/m 0,0 km/h (0 Bft) N 5,8 C 5,9 C 2,5 km/h (1 Bft)
17.11.2023 22:00 5,9 C 99 % 1020,4 hPa 0,3 l/m 0,0 km/h (0 Bft) N 5,8 C 5,9 C 0,0 km/h (0 Bft)
17.11.2023 23:00 6,1 C 99 % 1020,8 hPa 0,0 l/m 0,0 km/h (0 Bft) N 6,0 C 6,1 C 0,0 km/h (0 Bft)
18.11.2023 00:00 5,9 C 99 % 1021,1 hPa 0,0 l/m 0,0 km/h (0 Bft) O 5,8 C 5,9 C 0,0 km/h (0 Bft)
18.11.2023 01:00 5,2 C 99 % 1021,7 hPa 0,0 l/m 1,1 km/h (1 Bft) N 5,1 C 5,2 C 2,5 km/h (1 Bft)
18.11.2023 02:00 4,6 C 99 % 1021,8 hPa 0,0 l/m 0,0 km/h (0 Bft) N 4,5 C 4,6 C 0,0 km/h (0 Bft)
18.11.2023 03:00 3,8 C 99 % 1021,4 hPa 0,0 l/m 0,0 km/h (0 Bft) N 3,7 C 3,8 C 0,0 km/h (0 Bft)
18.11.2023 04:00 3,5 C 99 % 1021,3 hPa 0,0 l/m 0,0 km/h (0 Bft) N 3,4 C 3,5 C 0,0 km/h (0 Bft)
18.11.2023 05:00 3,1 C 99 % 1021,3 hPa 0,0 l/m 0,0 km/h (0 Bft) N 3,0 C 3,1 C 0,0 km/h (0 Bft)
18.11.2023 06:00 2,8 C 99 % 1021,5 hPa 0,0 l/m 0,0 km/h (0 Bft) N 2,7 C 2,8 C 0,0 km/h (0 Bft)
18.11.2023 07:00 3,1 C 99 % 1021,0 hPa 0,0 l/m 0,0 km/h (0 Bft) SO 3,0 C 3,1 C 2,5 km/h (1 Bft)
18.11.2023 08:00 3,2 C 99 % 1020,8 hPa 0,0 l/m 3,6 km/h (1 Bft) SO 3,1 C 3,2 C 6,1 km/h (2 Bft)
18.11.2023 09:00 3,8 C 99 % 1021,1 hPa 0,0 l/m 2,5 km/h (1 Bft) SO 3,7 C 3,8 C 6,1 km/h (2 Bft)
18.11.2023 10:00 5,0 C 99 % 1020,5 hPa 0,0 l/m 1,1 km/h (1 Bft) N 4,9 C 5,0 C 2,5 km/h (1 Bft)
18.11.2023 11:00 6,2 C 99 % 1020,2 hPa 0,0 l/m 0,0 km/h (0 Bft) N 6,1 C 6,2 C 2,5 km/h (1 Bft)
18.11.2023 12:00 6,9 C 98 % 1020,5 hPa 0,0 l/m 0,0 km/h (0 Bft) SO 6,6 C 6,9 C 0,0 km/h (0 Bft)
18.11.2023 13:00 7,3 C 97 % 1020,1 hPa 0,0 l/m 3,6 km/h (1 Bft) W 6,9 C 7,3 C 3,6 km/h (1 Bft)
18.11.2023 14:00 7,2 C 96 % 1019,9 hPa 0,0 l/m 6,1 km/h (2 Bft) N 6,6 C 7,2 C 7,2 km/h (2 Bft)
18.11.2023 15:00 8,0 C 94 % 1018,6 hPa 0,0 l/m 0,0 km/h (0 Bft) S-SO 7,1 C 8,0 C 0,0 km/h (0 Bft)
18.11.2023 16:00 9,0 C 81 % 1017,4 hPa 0,0 l/m 3,6 km/h (1 Bft) N 5,9 C 9,0 C 6,1 km/h (2 Bft)
18.11.2023 17:00 8,3 C 93 % 1017,3 hPa 0,0 l/m 0,0 km/h (0 Bft) N 7,2 C 8,3 C 0,0 km/h (0 Bft)
18.11.2023 18:00 7,8 C 97 % 1017,2 hPa 0,0 l/m 0,0 km/h (0 Bft) SO 7,4 C 7,8 C 0,0 km/h (0 Bft)
18.11.2023 19:00 9,5 C 74 % 1016,4 hPa 0,0 l/m 5,0 km/h (1 Bft) S-SW 5,1 C 9,5 C 6,1 km/h (2 Bft)
18.11.2023 20:00 9,6 C 76 % 1016,4 hPa 0,0 l/m 2,5 km/h (1 Bft) SO 5,6 C 9,6 C 6,1 km/h (2 Bft)
18.11.2023 21:00 9,1 C 82 % 1015,9 hPa 0,9 l/m 2,5 km/h (1 Bft) S-SW 6,2 C 9,1 C 3,6 km/h (1 Bft)
18.11.2023 22:00 9,7 C 89 % 1015,2 hPa 3,9 l/m 3,6 km/h (1 Bft) W 8,0 C 9,7 C 7,2 km/h (2 Bft)
18.11.2023 23:00 10,4 C 91 % 1014,7 hPa 1,5 l/m 5,0 km/h (1 Bft) W 9,0 C 10,4 C 9,7 km/h (2 Bft)
19.11.2023 00:00 10,5 C 93 % 1014,5 hPa 1,5 l/m 3,6 km/h (1 Bft) SW 9,4 C 10,5 C 7,2 km/h (2 Bft)
19.11.2023 01:00 10,9 C 93 % 1013,7 hPa 0,9 l/m 3,6 km/h (1 Bft) SW 9,8 C 10,9 C 6,1 km/h (2 Bft)
19.11.2023 02:00 11,0 C 94 % 1012,8 hPa 1,2 l/m 7,2 km/h (2 Bft) S-SW 10,1 C 10,4 C 11,2 km/h (2 Bft)
19.11.2023 03:00 11,9 C 89 % 1012,6 hPa 1,2 l/m 6,1 km/h (2 Bft) SW 10,1 C 11,9 C 11,2 km/h (2 Bft)
19.11.2023 04:00 11,4 C 93 % 1012,5 hPa 2,1 l/m 9,7 km/h (2 Bft) SW 10,3 C 9,3 C 14,8 km/h (3 Bft)
19.11.2023 05:00 11,2 C 95 % 1012,6 hPa 0,9 l/m 6,1 km/h (2 Bft) S-SW 10,4 C 11,2 C 9,7 km/h (2 Bft)
19.11.2023 06:00 12,0 C 93 % 1012,5 hPa 0,0 l/m 8,6 km/h (2 Bft) W-SW 10,9 C 10,6 C 13,3 km/h (3 Bft)
19.11.2023 07:00 12,5 C 91 % 1012,5 hPa 0,0 l/m 9,7 km/h (2 Bft) W-SW 11,1 C 10,5 C 17,3 km/h (3 Bft)
19.11.2023 08:00 12,9 C 91 % 1012,3 hPa 0,0 l/m 11,2 km/h (2 Bft) W-SW 11,5 C 10,2 C 17,3 km/h (3 Bft)
19.11.2023 09:00 13,3 C 90 % 1012,7 hPa 0,0 l/m 9,7 km/h (2 Bft) S-SW 11,7 C 11,4 C 17,3 km/h (3 Bft)
19.11.2023 10:00 13,6 C 89 % 1012,9 hPa 0,0 l/m 14,8 km/h (3 Bft) W-SW 11,8 C 9,6 C 22,0 km/h (4 Bft)
19.11.2023 11:00 13,8 C 88 % 1013,3 hPa 0,0 l/m 14,8 km/h (3 Bft) W-SW 11,8 C 9,8 C 20,9 km/h (4 Bft)
19.11.2023 12:00 13,9 C 89 % 1013,0 hPa 0,0 l/m 11,2 km/h (2 Bft) W 12,1 C 11,3 C 18,4 km/h (3 Bft)
19.11.2023 13:00 13,9 C 89 % 1012,7 hPa 0,0 l/m 14,8 km/h (3 Bft) W-SW 12,1 C 9,9 C 22,0 km/h (4 Bft)
19.11.2023 14:00 14,2 C 88 % 1012,6 hPa 0,0 l/m 12,2 km/h (2 Bft) S-SW 12,2 C 11,3 C 18,4 km/h (3 Bft)
19.11.2023 15:00 15,3 C 85 % 1011,8 hPa 0,0 l/m 7,2 km/h (2 Bft) SO 12,8 C 14,9 C 11,2 km/h (2 Bft)
19.11.2023 16:00 15,3 C 80 % 1011,5 hPa 0,0 l/m 9,7 km/h (2 Bft) SW 11,9 C 13,6 C 18,4 km/h (3 Bft)
19.11.2023 17:00 14,2 C 82 % 1011,6 hPa 0,0 l/m 8,6 km/h (2 Bft) SW 11,2 C 12,9 C 18,4 km/h (3 Bft)
19.11.2023 18:00 13,4 C 84 % 1011,8 hPa 0,0 l/m 9,7 km/h (2 Bft) SW 10,8 C 11,5 C 14,8 km/h (3 Bft)
19.11.2023 19:00 13,6 C 85 % 1012,0 hPa 0,0 l/m 9,7 km/h (2 Bft) W-SW 11,1 C 11,7 C 14,8 km/h (3 Bft)
19.11.2023 20:00 13,7 C 85 % 1012,5 hPa 0,0 l/m 11,2 km/h (2 Bft) SW 11,2 C 11,1 C 17,3 km/h (3 Bft)
19.11.2023 21:00 13,8 C 83 % 1012,6 hPa 0,0 l/m 12,2 km/h (2 Bft) W-SW 11,0 C 10,8 C 22,0 km/h (4 Bft)
19.11.2023 22:00 13,6 C 83 % 1012,8 hPa 0,0 l/m 14,8 km/h (3 Bft) SW 10,8 C 9,6 C 24,5 km/h (4 Bft)
19.11.2023 23:00 13,5 C 81 % 1012,7 hPa 0,0 l/m 13,3 km/h (3 Bft) S-SW 10,3 C 10,0 C 20,9 km/h (4 Bft)
Min-Datum _ 18.11.23 14.11.23 16.11.23 - 14.11.23 - 18.11.23 18.11.23 14.11.23
_ Min-Zeit 06:13 13:13 22:13 - 00:13 - 06:13 06:13 00:13
Minimum _ 2,8 C 68 % 999,9 hPa - 0,0 km/h (0 Bft) - 2,7 C 2,8 C 0,0 km/h (0 Bft)
Max-Datum _ 13.11.23 14.11.23 18.11.23 14.11.23 13.11.23 - 13.11.23 13.11.23 13.11.23
_ Max-Zeit 22:13 01:13 02:13 00:13 20:13 - 23:13 15:13 14:13
Maximum _ 17,0 C 99 % 1021,8 hPa 6,6 l/m 19,4 km/h
W-SW (3 Bft)
- 14,1 C 15,1 C 25,6 km/h
W-SW (4 Bft)
Durchschnitt _ 10,1 C 91 % 1012,1 hPa #87,6 l/m 6,0 km/h (2 Bft) SW 8,6 C 9,1 C 9,7 km/h (2 Bft)
www.sexauwetter.de